Terminal Aerodrome Forecast
Issued by NWS Charleston, WV

Current Version | Previous Version | Text Only | Print | Product List | Glossary Off
Versions: 1 2 3 4 5 6 7 8 9 10 11 12 13 14 15 16 17 18 19 20 21

000
FTUS41 KRLX 291538 AAA
TAFPKB
TAF AMD
KPKB 291538Z 2916/3012 27005KT 5SM HZ OVC009
     FM291700 28005KT 6SM HZ BKN012
     FM291800 31006KT P6SM BKN025
     FM292200 33007KT P6SM SCT040
     FM300800 VRB03KT 4SM BR SCT001 BKN120=

USA.gov is the U.S. government's official web portal to all federal, state and local government web resources and services.